createdAt,value
2022-08-10T00:00:20.712Z,21.48
2022-08-10T00:01:56.081Z,21.51
2022-08-10T00:03:29.446Z,21.55
2022-08-10T00:05:01.843Z,21.57
2022-08-10T00:06:35.174Z,21.58
2022-08-10T00:08:07.743Z,21.59
2022-08-10T00:09:50.984Z,21.57
2022-08-10T00:11:24.846Z,21.53
2022-08-10T00:12:57.424Z,21.45
2022-08-10T00:14:30.876Z,21.37
2022-08-10T00:16:04.915Z,21.36
2022-08-10T00:17:38.705Z,21.33
2022-08-10T00:19:12.012Z,21.30
2022-08-10T00:20:45.982Z,21.27
2022-08-10T00:22:19.499Z,21.20
2022-08-10T00:23:52.848Z,21.22
2022-08-10T00:25:26.177Z,21.17
2022-08-10T00:27:58.710Z,21.14
2022-08-10T00:28:53.007Z,21.04
2022-08-10T00:30:25.330Z,20.96
2022-08-10T00:31:59.725Z,20.88
2022-08-10T00:33:34.494Z,20.83
2022-08-10T00:35:08.519Z,20.76
2022-08-10T00:36:41.969Z,20.74
2022-08-10T00:38:15.371Z,20.70
2022-08-10T00:39:48.836Z,20.68
2022-08-10T00:41:21.271Z,20.68
2022-08-10T00:42:57.068Z,20.72
2022-08-10T00:44:30.449Z,20.72
2022-08-10T00:46:04.217Z,20.71
2022-08-10T00:47:37.850Z,20.65
2022-08-10T00:49:12.652Z,20.62
2022-08-10T00:50:46.270Z,20.60
2022-08-10T00:52:20.237Z,20.60
2022-08-10T00:53:53.589Z,20.58
2022-08-10T00:55:28.127Z,20.62
2022-08-10T00:57:16.152Z,20.60
2022-08-10T00:58:51.535Z,20.58
2022-08-10T01:00:25.071Z,20.58
2022-08-10T01:02:08.996Z,20.50
2022-08-10T01:04:57.502Z,20.46
2022-08-10T01:05:51.214Z,20.42
2022-08-10T01:07:45.671Z,20.39
2022-08-10T01:09:25.180Z,20.38
2022-08-10T01:11:07.042Z,20.34
2022-08-10T01:13:06.791Z,20.32
2022-08-10T01:14:54.286Z,20.22
2022-08-10T01:16:33.341Z,20.16
2022-08-10T01:18:14.029Z,20.16
2022-08-10T01:19:58.564Z,20.18
2022-08-10T01:22:14.138Z,20.18
2022-08-10T01:24:05.705Z,20.14
2022-08-10T01:26:11.615Z,20.06
2022-08-10T01:27:56.823Z,20.07
2022-08-10T01:29:55.008Z,20.11
2022-08-10T01:31:35.043Z,20.08
2022-08-10T01:33:13.200Z,20.10
2022-08-10T01:34:53.201Z,20.10
2022-08-10T01:36:32.277Z,20.13
2022-08-10T01:38:10.331Z,20.14
2022-08-10T01:39:47.534Z,20.15
2022-08-10T01:41:25.060Z,20.16
2022-08-10T01:43:08.290Z,20.16
2022-08-10T01:44:49.754Z,20.17
2022-08-10T01:46:25.511Z,20.16
2022-08-10T01:48:18.996Z,20.16
2022-08-10T01:49:56.314Z,20.16
2022-08-10T01:51:34.473Z,20.10
2022-08-10T01:53:10.828Z,20.03
2022-08-10T01:54:46.015Z,19.99
2022-08-10T01:56:21.237Z,19.93
2022-08-10T01:57:55.965Z,19.89
2022-08-10T01:59:33.279Z,19.87
2022-08-10T02:01:10.952Z,19.84
2022-08-10T02:02:51.849Z,19.82
2022-08-10T02:04:29.121Z,19.81
2022-08-10T02:06:03.845Z,19.78
2022-08-10T02:07:38.855Z,19.74
2022-08-10T02:09:14.806Z,19.71
2022-08-10T02:10:48.484Z,19.69
2022-08-10T02:12:27.938Z,19.65
2022-08-10T02:14:02.242Z,19.68
2022-08-10T02:15:38.341Z,19.65
2022-08-10T02:18:00.082Z,19.60
2022-08-10T02:19:31.230Z,19.45
2022-08-10T02:21:06.244Z,19.51
2022-08-10T02:22:41.755Z,19.46
2022-08-10T02:24:17.427Z,19.40
2022-08-10T02:25:53.398Z,19.34
2022-08-10T02:27:28.186Z,19.31
2022-08-10T02:29:02.153Z,19.27
2022-08-10T02:30:38.651Z,19.17
2022-08-10T02:32:12.711Z,19.00
2022-08-10T02:33:59.500Z,19.04
2022-08-10T02:35:54.743Z,19.02
2022-08-10T02:37:27.905Z,18.98
2022-08-10T02:39:04.133Z,18.96
2022-08-10T02:42:18.161Z,18.96
2022-08-10T02:45:21.102Z,18.91
2022-08-10T02:45:22.070Z,18.97
2022-08-10T02:46:40.841Z,18.98
2022-08-10T02:48:19.935Z,18.97
2022-08-10T02:50:00.900Z,18.99
2022-08-10T02:52:06.407Z,18.99
2022-08-10T02:53:55.070Z,18.91
2022-08-10T02:55:36.893Z,18.79
2022-08-10T02:57:17.277Z,18.63
2022-08-10T02:58:57.251Z,18.60
2022-08-10T03:00:31.761Z,18.57
2022-08-10T03:02:08.043Z,18.55
2022-08-10T03:03:48.863Z,18.57
2022-08-10T03:05:23.872Z,18.56
2022-08-10T03:07:01.651Z,18.56
2022-08-10T03:08:39.924Z,18.59
2022-08-10T03:10:17.606Z,18.65
2022-08-10T03:12:34.926Z,18.66
2022-08-10T03:13:59.607Z,18.72
2022-08-10T03:15:35.654Z,18.74
2022-08-10T03:17:11.323Z,18.79
2022-08-10T03:18:45.518Z,18.85
2022-08-10T03:20:36.939Z,18.88
2022-08-10T03:22:15.578Z,18.91
2022-08-10T03:23:51.097Z,18.94
2022-08-10T03:25:27.102Z,18.94
2022-08-10T03:27:01.045Z,18.94
2022-08-10T03:28:36.214Z,18.97
2022-08-10T03:30:30.027Z,18.97
2022-08-10T03:32:06.942Z,18.97
2022-08-10T03:33:42.880Z,18.97
2022-08-10T03:35:16.151Z,18.96
2022-08-10T03:36:49.899Z,18.91
2022-08-10T03:38:24.581Z,18.91
2022-08-10T03:39:58.365Z,18.89
2022-08-10T03:41:36.677Z,18.84
2022-08-10T03:43:12.856Z,18.77
2022-08-10T03:44:50.411Z,18.75
2022-08-10T03:46:27.419Z,18.74
2022-08-10T03:48:02.141Z,18.76
2022-08-10T03:49:38.023Z,18.78
2022-08-10T03:51:12.268Z,18.80
2022-08-10T03:52:46.517Z,18.79
2022-08-10T03:54:23.124Z,18.80
2022-08-10T03:56:29.790Z,18.81
2022-08-10T03:57:49.928Z,18.85
2022-08-10T03:59:23.641Z,18.90
2022-08-10T04:00:57.196Z,18.86
2022-08-10T04:02:43.629Z,18.83
2022-08-10T04:04:24.679Z,18.84
2022-08-10T04:05:59.699Z,18.86
2022-08-10T04:07:32.994Z,18.85
2022-08-10T04:09:05.546Z,18.81
2022-08-10T04:10:40.490Z,18.80
2022-08-10T04:12:13.966Z,18.84
2022-08-10T04:13:47.205Z,18.86
2022-08-10T04:15:20.474Z,18.88
2022-08-10T04:16:52.990Z,18.96
2022-08-10T04:18:26.245Z,19.02
2022-08-10T04:20:00.846Z,19.11
2022-08-10T04:21:40.186Z,19.20
2022-08-10T04:23:17.595Z,19.29
2022-08-10T04:24:55.198Z,19.36
2022-08-10T04:26:30.049Z,19.46
2022-08-10T04:28:03.678Z,19.52
2022-08-10T04:29:37.700Z,19.56
2022-08-10T04:31:14.129Z,19.62
2022-08-10T04:32:50.174Z,19.69
2022-08-10T04:34:25.663Z,19.73
2022-08-10T04:35:59.777Z,19.80
2022-08-10T04:37:37.386Z,19.83
2022-08-10T04:39:22.163Z,19.89
2022-08-10T04:40:56.123Z,19.95
2022-08-10T04:42:31.988Z,20.00
2022-08-10T04:44:05.591Z,20.03
2022-08-10T04:45:48.613Z,20.04
2022-08-10T04:47:51.260Z,20.08
2022-08-10T04:49:55.591Z,20.16
2022-08-10T04:51:16.017Z,20.24
2022-08-10T04:52:51.664Z,20.26
2022-08-10T04:54:25.459Z,20.33
2022-08-10T04:56:03.162Z,20.46
2022-08-10T04:57:37.852Z,20.55
2022-08-10T04:59:12.895Z,20.57
2022-08-10T05:00:46.413Z,20.60
2022-08-10T05:02:29.206Z,20.61
2022-08-10T05:04:35.362Z,20.63
2022-08-10T05:05:59.082Z,20.57
2022-08-10T05:07:40.206Z,20.56
2022-08-10T05:09:27.316Z,20.67
2022-08-10T05:11:00.958Z,20.80
2022-08-10T05:12:36.248Z,21.18
2022-08-10T05:14:11.892Z,21.60
2022-08-10T05:15:46.028Z,21.79
2022-08-10T05:17:18.577Z,21.82
2022-08-10T05:18:52.124Z,21.89
2022-08-10T05:20:25.392Z,21.98
2022-08-10T05:22:04.544Z,22.16
2022-08-10T05:23:38.524Z,22.57
2022-08-10T05:25:13.909Z,23.09
2022-08-10T05:26:59.442Z,23.53
2022-08-10T05:28:40.630Z,23.93
2022-08-10T05:30:16.931Z,24.16
2022-08-10T05:31:51.048Z,24.40
2022-08-10T05:33:24.269Z,24.61
2022-08-10T05:34:58.119Z,24.93
2022-08-10T05:36:31.904Z,25.00
2022-08-10T05:38:11.847Z,25.15
2022-08-10T05:39:50.566Z,25.22
2022-08-10T05:41:24.779Z,25.35
2022-08-10T05:42:57.261Z,25.51
2022-08-10T05:44:31.340Z,25.71
2022-08-10T05:46:18.904Z,25.88
2022-08-10T05:48:41.561Z,26.21
2022-08-10T05:49:49.062Z,26.60
2022-08-10T05:51:23.028Z,26.90
2022-08-10T05:52:56.555Z,27.39
2022-08-10T05:54:30.162Z,27.28
2022-08-10T05:56:04.436Z,27.75
2022-08-10T05:57:37.814Z,28.02
2022-08-10T05:59:12.150Z,28.34
2022-08-10T06:00:50.064Z,28.60
2022-08-10T06:02:32.109Z,28.61
2022-08-10T06:04:09.616Z,28.46
2022-08-10T06:05:46.331Z,28.48
2022-08-10T06:07:22.101Z,28.54
2022-08-10T06:08:56.976Z,28.51
2022-08-10T06:10:33.188Z,28.65
2022-08-10T06:12:27.718Z,28.89
2022-08-10T06:14:22.780Z,29.23
2022-08-10T06:16:04.496Z,29.71
2022-08-10T06:17:40.538Z,30.03
2022-08-10T06:19:14.940Z,30.03
2022-08-10T06:20:49.084Z,30.09
2022-08-10T06:22:22.575Z,30.14
2022-08-10T06:24:00.651Z,30.27
2022-08-10T06:27:34.324Z,30.59
2022-08-10T06:29:11.349Z,30.80
2022-08-10T06:30:46.721Z,30.99
2022-08-10T06:32:25.491Z,31.23
2022-08-10T06:34:01.771Z,31.32
2022-08-10T06:35:37.255Z,30.93
2022-08-10T06:37:11.960Z,30.89
2022-08-10T06:38:47.558Z,31.00
2022-08-10T06:40:21.356Z,31.33
2022-08-10T06:42:16.352Z,31.72
2022-08-10T06:43:58.744Z,32.02
2022-08-10T06:45:38.053Z,32.12
2022-08-10T06:47:13.217Z,32.42
2022-08-10T06:49:01.215Z,32.35
2022-08-10T06:50:59.125Z,32.19
2022-08-10T06:52:34.073Z,31.87
2022-08-10T06:54:10.381Z,32.31
2022-08-10T06:55:55.163Z,32.72
2022-08-10T06:57:33.806Z,33.09
2022-08-10T06:59:13.402Z,33.24
2022-08-10T07:00:58.181Z,33.40
2022-08-10T07:02:38.076Z,33.57
2022-08-10T07:04:31.977Z,33.42
2022-08-10T07:06:08.975Z,32.93
2022-08-10T07:07:45.561Z,32.46
2022-08-10T07:09:20.879Z,31.87
2022-08-10T07:10:55.769Z,31.52
2022-08-10T07:12:30.756Z,31.29
2022-08-10T07:14:15.288Z,30.91
2022-08-10T07:15:58.084Z,30.42
2022-08-10T07:17:39.502Z,29.97
2022-08-10T07:19:15.799Z,29.70
2022-08-10T07:20:51.088Z,29.22
2022-08-10T07:23:27.431Z,28.84
2022-08-10T07:24:22.365Z,28.57
2022-08-10T07:25:57.973Z,28.40
2022-08-10T07:27:39.178Z,28.25
2022-08-10T07:29:53.220Z,28.13
2022-08-10T07:31:54.438Z,28.01
2022-08-10T07:33:23.419Z,27.88
2022-08-10T07:34:59.570Z,27.70
2022-08-10T07:36:33.993Z,27.53
2022-08-10T07:38:08.775Z,27.41
2022-08-10T07:39:58.253Z,27.37
2022-08-10T07:41:41.280Z,27.31
2022-08-10T07:43:17.384Z,27.27
2022-08-10T07:44:51.619Z,27.13
2022-08-10T07:46:28.260Z,26.99
2022-08-10T07:48:07.690Z,26.87
2022-08-10T07:49:43.557Z,26.65
2022-08-10T07:51:21.079Z,26.59
2022-08-10T07:53:01.413Z,26.50
2022-08-10T07:54:41.566Z,26.55
2022-08-10T07:56:45.432Z,26.51
2022-08-10T07:58:12.725Z,26.42
2022-08-10T07:59:49.773Z,26.42
2022-08-10T08:01:29.040Z,26.43
2022-08-10T08:03:07.314Z,26.48
2022-08-10T08:04:42.088Z,26.52
2022-08-10T08:06:17.869Z,26.60
2022-08-10T08:07:53.195Z,26.59
2022-08-10T08:09:28.106Z,26.47
2022-08-10T08:11:02.005Z,26.47
2022-08-10T08:12:38.369Z,26.51
2022-08-10T08:14:14.126Z,26.48
2022-08-10T08:16:17.532Z,26.48
2022-08-10T08:17:42.725Z,26.49
2022-08-10T08:19:37.723Z,26.64
2022-08-10T08:24:02.115Z,26.56
2022-08-10T08:24:04.353Z,26.58
2022-08-10T08:25:01.599Z,26.69
2022-08-10T08:26:36.029Z,26.64
2022-08-10T08:28:10.740Z,26.44
2022-08-10T08:29:46.496Z,26.40
2022-08-10T08:31:21.523Z,26.36
2022-08-10T08:32:56.873Z,26.36
2022-08-10T08:34:30.845Z,26.35
2022-08-10T08:36:05.576Z,26.35
2022-08-10T08:38:32.893Z,26.40
2022-08-10T08:39:37.300Z,26.37
2022-08-10T08:41:36.726Z,26.38
2022-08-10T08:43:48.194Z,26.38
2022-08-10T08:45:31.800Z,26.39
2022-08-10T08:48:04.798Z,26.44
2022-08-10T08:50:08.359Z,26.47
2022-08-10T08:52:09.714Z,26.49
2022-08-10T08:54:04.277Z,26.72
2022-08-10T08:56:03.922Z,26.90
2022-08-10T08:57:50.080Z,27.21
2022-08-10T08:59:38.864Z,27.48
2022-08-10T09:01:40.549Z,27.76
2022-08-10T09:03:53.896Z,27.97
2022-08-10T09:05:59.330Z,28.23
2022-08-10T09:08:12.515Z,28.50
2022-08-10T09:10:04.863Z,28.66
2022-08-10T09:11:55.980Z,28.79
2022-08-10T09:13:33.904Z,28.65
2022-08-10T09:15:40.776Z,28.57
2022-08-10T09:17:17.433Z,28.65
2022-08-10T09:18:57.346Z,28.56
2022-08-10T09:20:36.478Z,28.56
2022-08-10T09:22:19.467Z,28.59
2022-08-10T09:24:04.662Z,28.47
2022-08-10T09:25:45.865Z,28.36
2022-08-10T09:27:27.731Z,28.49
2022-08-10T09:29:11.808Z,28.62
2022-08-10T09:31:21.029Z,28.67
2022-08-10T09:36:15.357Z,28.54
2022-08-10T09:36:19.619Z,28.59
2022-08-10T09:37:00.952Z,28.64
2022-08-10T09:38:46.516Z,28.76
2022-08-10T09:41:02.256Z,28.82
2022-08-10T09:42:33.944Z,28.71
2022-08-10T09:44:16.205Z,28.50
2022-08-10T09:45:59.921Z,28.49
2022-08-10T09:48:02.055Z,28.63
2022-08-10T09:49:54.775Z,28.67
2022-08-10T09:51:46.318Z,28.69
2022-08-10T09:53:32.585Z,28.82
2022-08-10T09:55:14.547Z,28.93
2022-08-10T09:57:03.118Z,28.90
2022-08-10T09:59:26.960Z,28.76
2022-08-10T10:00:57.217Z,28.68
2022-08-10T10:02:39.301Z,28.69
2022-08-10T10:04:23.222Z,28.70
2022-08-10T10:06:05.970Z,28.44
2022-08-10T10:07:52.686Z,28.47
2022-08-10T10:09:33.361Z,28.48
2022-08-10T10:11:16.602Z,28.52
2022-08-10T10:12:56.299Z,28.60
2022-08-10T10:14:57.837Z,28.73
2022-08-10T10:16:54.573Z,28.89
2022-08-10T10:18:42.893Z,29.21
2022-08-10T10:20:24.044Z,29.51
2022-08-10T10:22:13.717Z,29.63
2022-08-10T10:24:21.375Z,29.68
2022-08-10T10:26:03.593Z,29.63
2022-08-10T10:27:48.514Z,29.82
2022-08-10T10:29:57.928Z,29.90
2022-08-10T10:31:31.927Z,29.92
2022-08-10T10:33:14.581Z,29.74
2022-08-10T10:34:57.693Z,29.53
2022-08-10T10:36:31.887Z,29.47
2022-08-10T10:38:10.501Z,29.43
2022-08-10T10:39:47.907Z,29.34
2022-08-10T10:41:55.912Z,29.32
2022-08-10T10:43:42.236Z,29.30
2022-08-10T10:45:20.476Z,29.31
2022-08-10T10:47:00.345Z,29.13
2022-08-10T10:48:44.682Z,29.11
2022-08-10T10:50:24.017Z,29.23
2022-08-10T10:52:06.138Z,29.17
2022-08-10T10:53:47.486Z,29.03
2022-08-10T10:55:27.279Z,28.91
2022-08-10T10:57:10.770Z,28.87
2022-08-10T10:58:54.370Z,28.96
2022-08-10T11:00:35.974Z,28.93
2022-08-10T11:02:23.099Z,29.07
2022-08-10T11:04:14.506Z,29.26
2022-08-10T11:05:56.367Z,29.04
2022-08-10T11:07:35.838Z,29.23
2022-08-10T11:10:04.799Z,29.32
2022-08-10T11:12:00.759Z,29.49
2022-08-10T11:14:27.236Z,29.82
2022-08-10T11:15:36.466Z,30.01
2022-08-10T11:17:23.787Z,30.05
2022-08-10T11:19:04.699Z,30.00
2022-08-10T11:20:44.399Z,29.87
2022-08-10T11:22:29.824Z,30.00
2022-08-10T11:24:47.380Z,30.19
2022-08-10T11:26:20.017Z,30.31
2022-08-10T11:28:02.089Z,30.39
2022-08-10T11:29:49.572Z,30.47
2022-08-10T11:31:35.031Z,30.34
2022-08-10T11:33:30.992Z,30.18
2022-08-10T11:35:18.906Z,30.23
2022-08-10T11:37:01.509Z,30.38
2022-08-10T11:39:03.949Z,30.19
2022-08-10T11:40:41.998Z,30.12
2022-08-10T11:42:31.647Z,30.11
2022-08-10T11:44:22.672Z,29.98
2022-08-10T11:46:07.699Z,29.86
2022-08-10T11:47:48.521Z,29.80
2022-08-10T11:49:32.273Z,29.82
2022-08-10T11:51:12.962Z,29.91
2022-08-10T11:52:55.129Z,29.89
2022-08-10T11:54:36.550Z,29.98
2022-08-10T11:56:13.885Z,29.99
2022-08-10T11:57:53.374Z,30.12
2022-08-10T11:59:58.808Z,30.13
2022-08-10T12:01:34.350Z,30.09
2022-08-10T12:03:09.861Z,29.95
2022-08-10T12:04:49.126Z,30.03
2022-08-10T12:06:52.237Z,30.07
2022-08-10T12:10:06.980Z,29.95
2022-08-10T12:10:15.438Z,30.06
2022-08-10T12:11:50.752Z,30.07
2022-08-10T12:13:30.219Z,30.03
2022-08-10T12:15:08.306Z,30.06
2022-08-10T12:16:44.557Z,30.09
2022-08-10T12:18:28.526Z,30.18
2022-08-10T12:20:10.009Z,30.36
2022-08-10T12:21:48.180Z,30.46
2022-08-10T12:23:25.299Z,30.52
2022-08-10T12:25:04.286Z,30.68
2022-08-10T12:26:43.663Z,30.82
2022-08-10T12:28:33.233Z,30.82
2022-08-10T12:30:21.451Z,30.69
2022-08-10T12:32:00.637Z,30.65
2022-08-10T12:34:02.060Z,30.75
2022-08-10T12:35:41.930Z,30.68
2022-08-10T12:37:25.588Z,30.77
2022-08-10T12:39:05.446Z,30.69
2022-08-10T12:40:45.801Z,30.65
2022-08-10T12:42:36.943Z,30.59
2022-08-10T12:44:19.362Z,30.42
2022-08-10T12:46:06.292Z,30.24
2022-08-10T12:47:46.265Z,29.96
2022-08-10T12:49:27.499Z,29.87
2022-08-10T12:51:11.131Z,29.92
2022-08-10T12:52:53.455Z,29.92
2022-08-10T12:54:33.039Z,29.83
2022-08-10T12:56:08.670Z,29.74
2022-08-10T12:57:44.409Z,29.75
2022-08-10T12:59:19.851Z,29.78
2022-08-10T13:01:15.108Z,29.74
2022-08-10T13:02:50.497Z,29.89
2022-08-10T13:04:30.082Z,29.90
2022-08-10T13:06:08.259Z,29.98
2022-08-10T13:08:24.346Z,29.96
2022-08-10T13:09:55.495Z,29.98
2022-08-10T13:12:34.264Z,30.06
2022-08-10T13:13:28.954Z,30.07
2022-08-10T13:15:45.946Z,29.97
2022-08-10T13:17:09.369Z,29.90
2022-08-10T13:18:47.073Z,29.93
2022-08-10T13:20:26.065Z,29.95
2022-08-10T13:22:04.111Z,29.92
2022-08-10T13:23:42.647Z,29.89
2022-08-10T13:25:39.299Z,29.85
2022-08-10T13:27:25.729Z,29.86
2022-08-10T13:29:02.656Z,29.93
2022-08-10T13:30:50.746Z,30.04
2022-08-10T13:32:27.570Z,30.12
2022-08-10T13:34:43.303Z,30.18
2022-08-10T13:36:02.733Z,30.21
2022-08-10T13:37:43.907Z,30.07
2022-08-10T13:39:21.582Z,30.06
2022-08-10T13:40:56.812Z,30.02
2022-08-10T13:42:35.123Z,29.96
2022-08-10T13:44:10.915Z,29.95
2022-08-10T13:45:49.904Z,29.90
2022-08-10T13:47:32.292Z,29.77
2022-08-10T13:49:22.631Z,29.75
2022-08-10T13:51:00.013Z,29.76
2022-08-10T13:52:34.040Z,29.77
2022-08-10T13:54:11.339Z,29.77
2022-08-10T13:55:54.770Z,29.78
2022-08-10T13:57:31.233Z,29.76
2022-08-10T13:59:09.876Z,29.78
2022-08-10T14:00:45.062Z,29.80
2022-08-10T14:02:26.572Z,29.78
2022-08-10T14:04:02.307Z,29.74
2022-08-10T14:05:38.766Z,29.78
2022-08-10T14:07:14.286Z,29.81
2022-08-10T14:08:50.809Z,29.85
2022-08-10T14:11:08.441Z,29.86
2022-08-10T14:12:32.047Z,29.86
2022-08-10T14:14:15.411Z,29.88
2022-08-10T14:15:50.119Z,29.85
2022-08-10T14:17:26.892Z,29.76
2022-08-10T14:19:04.601Z,29.85
2022-08-10T14:20:40.032Z,29.84
2022-08-10T14:22:19.692Z,29.83
2022-08-10T14:24:20.210Z,29.93
2022-08-10T14:26:03.087Z,29.99
2022-08-10T14:28:03.515Z,30.09
2022-08-10T14:29:43.958Z,30.11
2022-08-10T14:31:22.246Z,30.12
2022-08-10T14:32:57.894Z,30.11
2022-08-10T14:36:15.251Z,30.05
2022-08-10T14:36:33.482Z,29.95
2022-08-10T14:38:13.183Z,29.86
2022-08-10T14:39:49.748Z,29.82
2022-08-10T14:42:01.354Z,29.73
2022-08-10T14:43:29.191Z,29.71
2022-08-10T14:45:12.720Z,29.71
2022-08-10T14:46:51.571Z,29.75
2022-08-10T14:48:31.847Z,29.81
2022-08-10T14:50:07.678Z,29.88
2022-08-10T14:51:45.376Z,29.88
2022-08-10T14:53:21.214Z,29.79
2022-08-10T14:55:05.674Z,29.76
2022-08-10T14:56:55.582Z,29.76
2022-08-10T14:58:33.005Z,29.74
2022-08-10T15:00:21.048Z,29.64
2022-08-10T15:02:40.748Z,29.58
2022-08-10T15:04:03.312Z,29.43
2022-08-10T15:05:39.682Z,29.32
2022-08-10T15:07:24.100Z,29.25
2022-08-10T15:09:05.681Z,29.23
2022-08-10T15:10:51.149Z,29.25
2022-08-10T15:12:33.282Z,29.26
2022-08-10T15:14:20.067Z,29.22
2022-08-10T15:16:13.540Z,29.23
2022-08-10T15:17:52.908Z,29.23
2022-08-10T15:20:00.844Z,29.26
2022-08-10T15:21:42.885Z,29.27
2022-08-10T15:23:29.756Z,29.23
2022-08-10T15:25:05.440Z,29.12
2022-08-10T15:26:39.425Z,29.09
2022-08-10T15:28:30.611Z,28.96
2022-08-10T15:30:20.518Z,28.84
2022-08-10T15:32:12.250Z,28.69
2022-08-10T15:34:06.248Z,28.61
2022-08-10T15:35:58.399Z,28.53
2022-08-10T15:37:39.575Z,28.43
2022-08-10T15:40:24.762Z,28.34
2022-08-10T15:41:16.408Z,28.30
2022-08-10T15:42:58.286Z,28.27
2022-08-10T15:44:41.418Z,28.28
2022-08-10T15:46:18.373Z,28.24
2022-08-10T15:48:01.106Z,28.20
2022-08-10T15:49:45.952Z,28.12
2022-08-10T15:51:27.990Z,28.05
2022-08-10T15:53:09.518Z,28.05
2022-08-10T15:54:58.029Z,27.97
2022-08-10T15:56:36.715Z,27.96
2022-08-10T15:58:14.366Z,27.81
2022-08-10T15:59:55.216Z,27.68
2022-08-10T16:02:13.897Z,27.63
2022-08-10T16:03:36.989Z,27.60
2022-08-10T16:05:16.988Z,27.50
2022-08-10T16:06:59.664Z,27.36
2022-08-10T16:08:56.387Z,27.26
2022-08-10T16:10:53.608Z,27.19
2022-08-10T16:12:34.061Z,27.17
2022-08-10T16:14:11.775Z,27.08
2022-08-10T16:15:53.580Z,27.07
2022-08-10T16:17:28.181Z,27.05
2022-08-10T16:19:04.634Z,27.06
2022-08-10T16:20:59.309Z,27.00
2022-08-10T16:22:37.085Z,26.94
2022-08-10T16:24:16.363Z,26.93
2022-08-10T16:26:00.489Z,26.95
2022-08-10T16:27:38.331Z,26.93
2022-08-10T16:29:14.881Z,26.93
2022-08-10T16:30:52.948Z,26.90
2022-08-10T16:32:28.222Z,26.90
2022-08-10T16:34:04.962Z,26.90
2022-08-10T16:35:39.645Z,26.90
2022-08-10T16:37:15.533Z,26.92
2022-08-10T16:38:53.046Z,26.89
2022-08-10T16:40:28.177Z,26.83
2022-08-10T16:42:06.020Z,26.76
2022-08-10T16:43:41.091Z,26.73
2022-08-10T16:45:20.016Z,26.71
2022-08-10T16:46:55.135Z,26.61
2022-08-10T16:48:49.542Z,26.59
2022-08-10T16:50:28.575Z,26.56
2022-08-10T16:52:02.982Z,26.59
2022-08-10T16:53:43.256Z,26.54
2022-08-10T16:55:48.375Z,26.47
2022-08-10T16:57:19.015Z,26.49
2022-08-10T16:58:56.792Z,26.55
2022-08-10T17:00:31.516Z,26.50
2022-08-10T17:02:08.494Z,26.53
2022-08-10T17:04:05.555Z,26.50
2022-08-10T17:06:07.363Z,26.51
2022-08-10T17:07:36.893Z,26.51
2022-08-10T17:09:18.868Z,26.44
2022-08-10T17:10:55.177Z,26.40
2022-08-10T17:12:31.780Z,26.33
2022-08-10T17:14:09.356Z,26.30
2022-08-10T17:15:52.220Z,26.32
2022-08-10T17:17:31.064Z,26.28
2022-08-10T17:19:13.193Z,26.19
2022-08-10T17:20:46.650Z,26.20
2022-08-10T17:22:22.583Z,26.11
2022-08-10T17:23:59.267Z,26.14
2022-08-10T17:25:46.111Z,26.13
2022-08-10T17:28:13.700Z,26.08
2022-08-10T17:29:57.139Z,26.04
2022-08-10T17:31:24.045Z,26.02
2022-08-10T17:33:16.891Z,26.05
2022-08-10T17:34:57.196Z,26.04
2022-08-10T17:36:36.292Z,25.97
2022-08-10T17:38:12.106Z,25.97
2022-08-10T17:39:54.231Z,25.94
2022-08-10T17:41:32.583Z,25.85
2022-08-10T17:43:05.981Z,25.80
2022-08-10T17:44:42.087Z,25.81
2022-08-10T17:46:17.133Z,25.83
2022-08-10T17:47:52.442Z,25.82
2022-08-10T17:49:27.620Z,25.80
2022-08-10T17:51:02.479Z,25.78
2022-08-10T17:52:37.060Z,25.81
2022-08-10T17:54:21.274Z,25.74
2022-08-10T17:55:56.724Z,25.78
2022-08-10T17:57:36.276Z,25.76
2022-08-10T17:59:17.278Z,25.65
2022-08-10T18:00:52.662Z,25.68
2022-08-10T18:02:28.729Z,25.71
2022-08-10T18:04:06.491Z,25.71
2022-08-10T18:05:41.372Z,25.68
2022-08-10T18:07:16.276Z,25.67
2022-08-10T18:08:53.972Z,25.71
2022-08-10T18:10:27.774Z,25.71
2022-08-10T18:12:10.236Z,25.69
2022-08-10T18:13:56.715Z,25.68
2022-08-10T18:15:33.980Z,25.70
2022-08-10T18:17:13.359Z,25.69
2022-08-10T18:18:58.398Z,25.69
2022-08-10T18:20:36.798Z,25.67
2022-08-10T18:22:13.658Z,25.71
2022-08-10T18:23:52.687Z,25.74
2022-08-10T18:25:32.197Z,25.73
2022-08-10T18:27:07.430Z,25.70
2022-08-10T18:28:42.431Z,25.68
2022-08-10T18:30:16.617Z,25.68
2022-08-10T18:31:55.700Z,25.60
2022-08-10T18:33:32.466Z,25.69
2022-08-10T18:35:08.585Z,25.70
2022-08-10T18:36:43.664Z,25.69
2022-08-10T18:38:20.362Z,25.68
2022-08-10T18:39:58.336Z,25.68
2022-08-10T18:41:35.819Z,25.65
2022-08-10T18:44:06.109Z,25.63
2022-08-10T18:45:10.392Z,25.60
2022-08-10T18:46:51.381Z,25.57
2022-08-10T18:48:29.170Z,25.55
2022-08-10T18:50:08.085Z,25.44
2022-08-10T18:51:47.314Z,25.34
2022-08-10T18:53:31.670Z,25.45
2022-08-10T18:55:14.636Z,25.43
2022-08-10T18:56:58.641Z,25.40
2022-08-10T18:58:51.408Z,25.32
2022-08-10T19:00:32.612Z,25.34
2022-08-10T19:02:26.238Z,25.27
2022-08-10T19:04:21.429Z,25.18
2022-08-10T19:06:18.077Z,25.16
2022-08-10T19:08:11.176Z,25.18
2022-08-10T19:09:55.785Z,25.15
2022-08-10T19:11:41.612Z,25.10
2022-08-10T19:13:22.159Z,25.09
2022-08-10T19:15:02.290Z,25.09
2022-08-10T19:16:48.934Z,25.10
2022-08-10T19:18:32.818Z,25.08
2022-08-10T19:20:16.241Z,25.08
2022-08-10T19:21:57.890Z,25.09
2022-08-10T19:23:52.878Z,25.12
2022-08-10T19:26:39.428Z,25.14
2022-08-10T19:27:43.420Z,25.15
2022-08-10T19:30:10.338Z,25.19
2022-08-10T19:31:44.045Z,25.16
2022-08-10T19:33:29.288Z,25.11
2022-08-10T19:35:09.425Z,25.06
2022-08-10T19:36:52.702Z,24.99
2022-08-10T19:38:33.495Z,24.98
2022-08-10T19:40:44.359Z,24.95
2022-08-10T19:42:31.386Z,24.91
2022-08-10T19:44:13.629Z,24.98
2022-08-10T19:46:02.699Z,24.90
2022-08-10T19:47:42.453Z,24.91
2022-08-10T19:49:25.292Z,24.93
2022-08-10T19:51:04.793Z,24.95
2022-08-10T19:52:48.401Z,24.90
2022-08-10T19:54:30.939Z,24.88
2022-08-10T19:56:33.159Z,24.83
2022-08-10T19:58:17.038Z,24.78
2022-08-10T20:00:15.223Z,24.78
2022-08-10T20:01:56.125Z,24.75
2022-08-10T20:03:38.595Z,24.68
2022-08-10T20:05:19.012Z,24.71
2022-08-10T20:07:02.459Z,24.70
2022-08-10T20:08:42.699Z,24.65
2022-08-10T20:10:20.080Z,24.62
2022-08-10T20:12:00.667Z,24.58
2022-08-10T20:13:45.180Z,24.57
2022-08-10T20:15:28.730Z,24.54
2022-08-10T20:17:05.750Z,24.55
2022-08-10T20:18:44.727Z,24.54
2022-08-10T20:20:24.730Z,24.49
2022-08-10T20:22:04.225Z,24.49
2022-08-10T20:23:38.087Z,24.45
2022-08-10T20:25:17.593Z,24.45
2022-08-10T20:26:54.493Z,24.42
2022-08-10T20:28:41.292Z,24.43
2022-08-10T20:30:16.966Z,24.39
2022-08-10T20:31:57.898Z,24.38
2022-08-10T20:33:38.800Z,24.36
2022-08-10T20:35:19.832Z,24.33
2022-08-10T20:37:01.316Z,24.34
2022-08-10T20:38:44.030Z,24.29
2022-08-10T20:40:30.991Z,24.29
2022-08-10T20:42:17.433Z,24.27
2022-08-10T20:44:03.592Z,24.27
2022-08-10T20:46:06.876Z,24.18
2022-08-10T20:47:53.965Z,24.11
2022-08-10T20:49:37.376Z,24.08
2022-08-10T20:51:16.039Z,24.07
2022-08-10T20:52:53.096Z,24.07
2022-08-10T20:54:32.699Z,24.04
2022-08-10T20:56:15.887Z,24.00
2022-08-10T20:58:14.684Z,24.04
2022-08-10T21:00:04.171Z,24.08
2022-08-10T21:02:07.330Z,24.05
2022-08-10T21:04:04.135Z,24.02
2022-08-10T21:05:54.478Z,24.03
2022-08-10T21:08:02.660Z,24.01
2022-08-10T21:09:56.642Z,23.99
2022-08-10T21:11:41.438Z,23.96
2022-08-10T21:13:30.071Z,23.99
2022-08-10T21:15:20.893Z,23.96
2022-08-10T21:17:14.204Z,23.92
2022-08-10T21:19:04.001Z,23.92
2022-08-10T21:20:54.210Z,23.87
2022-08-10T21:22:34.665Z,23.87
2022-08-10T21:24:13.451Z,23.84
2022-08-10T21:25:59.192Z,23.84
2022-08-10T21:27:49.225Z,23.85
2022-08-10T21:29:40.245Z,23.81
2022-08-10T21:31:29.032Z,23.83
2022-08-10T21:33:08.565Z,23.83
2022-08-10T21:34:55.331Z,23.80
2022-08-10T21:36:32.395Z,23.78
2022-08-10T21:38:13.027Z,23.76
2022-08-10T21:40:34.851Z,23.77
2022-08-10T21:42:35.171Z,23.79
2022-08-10T21:44:37.902Z,23.82
2022-08-10T21:46:39.815Z,23.82
2022-08-10T21:48:57.095Z,23.82
2022-08-10T21:50:55.232Z,23.80
2022-08-10T21:52:54.192Z,23.73
2022-08-10T21:55:05.578Z,23.76
2022-08-10T21:57:08.178Z,23.75
2022-08-10T21:59:10.010Z,23.71
2022-08-10T22:01:09.336Z,23.67
2022-08-10T22:03:04.378Z,23.62